Time,TemperatureF,DewpointF,PressureIn,WindDirection,WindDirectionDegrees,WindSpeedMPH,WindSpeedGustMPH,Humidity,HourlyPrecipIn,Conditions,Clouds,dailyrainin,SoftwareType,DateUTC
2013-04-29 00:03:00,61.0,-99.9,-100.00,SSW,198,11.0,20.0,-999,-99.99,,,-99.99,,2013-04-29 04:03:00,
2013-04-29 00:13:00,61.0,-99.9,-100.00,SSW,198,11.0,20.0,-999,-99.99,,,-99.99,,2013-04-29 04:13:00,
2013-04-29 00:23:00,61.0,-99.9,-100.00,SSW,198,11.0,20.0,-999,-99.99,,,-99.99,,2013-04-29 04:23:00,
2013-04-29 00:33:00,61.0,-99.9,-100.00,SSW,198,11.0,20.0,-999,-99.99,,,-99.99,,2013-04-29 04:33:00,
2013-04-29 00:40:00,60.0,-99.9,-100.00,SSW,210,10.0,22.0,-999,-99.99,,,-99.99,,2013-04-29 04:40:00,
2013-04-29 01:12:00,60.0,-99.9,-100.00,SSW,210,10.0,22.0,-999,-99.99,,,-99.99,,2013-04-29 05:12:00,
2013-04-29 01:23:00,60.0,-99.9,-100.00,SSW,210,10.0,22.0,-999,-99.99,,,-99.99,,2013-04-29 05:23:00,
2013-04-29 01:32:00,60.0,-99.9,-100.00,SSW,210,10.0,22.0,-999,-99.99,,,-99.99,,2013-04-29 05:32:00,
2013-04-29 02:02:00,58.0,-99.9,-100.00,West,261,3.0,9.0,-999,-99.99,,,-99.99,,2013-04-29 06:02:00,
2013-04-29 02:12:00,58.0,-99.9,-100.00,West,261,3.0,9.0,-999,-99.99,,,-99.99,,2013-04-29 06:12:00,
2013-04-29 02:22:00,59.0,-99.9,-100.00,West,278,4.0,22.0,-999,-99.99,,,-99.99,,2013-04-29 06:22:00,
2013-04-29 02:32:00,59.0,-99.9,-100.00,West,278,4.0,22.0,-999,-99.99,,,-99.99,,2013-04-29 06:32:00,
2013-04-29 02:40:00,52.0,-99.9,-100.00,WSW,250,2.0,5.0,-999,-99.99,,,-99.99,,2013-04-29 06:40:00,
2013-04-29 02:42:00,59.0,-99.9,-100.00,West,278,4.0,22.0,-999,-99.99,,,-99.99,,2013-04-29 06:42:00,
2013-04-29 02:52:00,59.0,-99.9,-100.00,West,278,4.0,22.0,-999,-99.99,,,-99.99,,2013-04-29 06:52:00,
2013-04-29 03:02:00,52.0,-99.9,-100.00,WSW,250,2.0,5.0,-999,-99.99,,,-99.99,,2013-04-29 07:02:00,
2013-04-29 03:11:00,52.0,-99.9,-100.00,WSW,250,2.0,5.0,-999,-99.99,,,-99.99,,2013-04-29 07:11:00,
2013-04-29 03:22:00,52.0,-99.9,-100.00,WSW,250,2.0,5.0,-999,-99.99,,,-99.99,,2013-04-29 07:22:00,
2013-04-29 03:32:00,52.0,-99.9,-100.00,WSW,250,2.0,5.0,-999,-99.99,,,-99.99,,2013-04-29 07:32:00,
2013-04-29 03:40:00,48.0,-99.9,-100.00,South,182,3.0,4.0,-999,-99.99,,,-99.99,,2013-04-29 07:40:00,
2013-04-29 04:03:00,48.0,-99.9,-100.00,South,182,3.0,4.0,-999,-99.99,,,-99.99,,2013-04-29 08:03:00,
2013-04-29 04:11:00,48.0,-99.9,-100.00,South,182,3.0,4.0,-999,-99.99,,,-99.99,,2013-04-29 08:11:00,
2013-04-29 04:22:00,48.0,-99.9,-100.00,South,182,3.0,4.0,-999,-99.99,,,-99.99,,2013-04-29 08:22:00,
2013-04-29 04:32:00,48.0,-99.9,-100.00,South,182,3.0,4.0,-999,-99.99,,,-99.99,,2013-04-29 08:32:00,
2013-04-29 04:40:00,51.0,-99.9,-100.00,SSE,155,2.0,8.0,-999,-99.99,,,-99.99,,2013-04-29 08:40:00,
2013-04-29 05:02:00,51.0,-99.9,-100.00,SSE,155,2.0,8.0,-999,-99.99,,,-99.99,,2013-04-29 09:02:00,
2013-04-29 05:12:00,51.0,-99.9,-100.00,SSE,155,2.0,8.0,-999,-99.99,,,-99.99,,2013-04-29 09:12:00,
2013-04-29 05:22:00,51.0,-99.9,-100.00,SSE,155,2.0,8.0,-999,-99.99,,,-99.99,,2013-04-29 09:22:00,
2013-04-29 05:33:00,51.0,-99.9,-100.00,SSE,155,2.0,8.0,-999,-99.99,,,-99.99,,2013-04-29 09:33:00,
2013-04-29 05:40:00,52.0,-99.9,-100.00,WSW,238,6.0,11.0,-999,-99.99,,,-99.99,,2013-04-29 09:40:00,
2013-04-29 06:03:00,52.0,-99.9,-100.00,WSW,238,6.0,11.0,-999,-99.99,,,-99.99,,2013-04-29 10:03:00,
2013-04-29 06:12:00,52.0,-99.9,-100.00,WSW,238,6.0,11.0,-999,-99.99,,,-99.99,,2013-04-29 10:12:00,
2013-04-29 06:23:00,52.0,-99.9,-100.00,WSW,238,6.0,11.0,-999,-99.99,,,-99.99,,2013-04-29 10:23:00,
2013-04-29 06:32:00,52.0,-99.9,-100.00,WSW,238,6.0,11.0,-999,-99.99,,,-99.99,,2013-04-29 10:32:00,
2013-04-29 06:40:00,44.0,-99.9,-100.00,ENE,76,1.0,3.0,-999,-99.99,,,-99.99,,2013-04-29 10:40:00,
2013-04-29 07:12:00,44.0,-99.9,-100.00,ENE,76,1.0,3.0,-999,-99.99,,,-99.99,,2013-04-29 11:12:00,
2013-04-29 07:22:00,44.0,-99.9,-100.00,ENE,76,1.0,3.0,-999,-99.99,,,-99.99,,2013-04-29 11:22:00,
2013-04-29 07:32:00,44.0,-99.9,-100.00,ENE,76,1.0,3.0,-999,-99.99,,,-99.99,,2013-04-29 11:32:00,
2013-04-29 07:40:00,43.0,-99.9,-100.00,SW,216,1.0,2.0,-999,-99.99,,,-99.99,,2013-04-29 11:40:00,
2013-04-29 08:02:00,43.0,-99.9,-100.00,SW,216,1.0,2.0,-999,-99.99,,,-99.99,,2013-04-29 12:02:00,
2013-04-29 08:12:00,43.0,-99.9,-100.00,SW,216,1.0,2.0,-999,-99.99,,,-99.99,,2013-04-29 12:12:00,
2013-04-29 08:22:00,43.0,-99.9,-100.00,SW,216,1.0,2.0,-999,-99.99,,,-99.99,,2013-04-29 12:22:00,
2013-04-29 08:32:00,43.0,-99.9,-100.00,SW,216,1.0,2.0,-999,-99.99,,,-99.99,,2013-04-29 12:32:00,
2013-04-29 08:40:00,47.0,-99.9,-100.00,South,178,3.0,6.0,-999,-99.99,,,-99.99,,2013-04-29 12:40:00,
2013-04-29 09:01:00,47.0,-99.9,-100.00,South,178,3.0,6.0,-999,-99.99,,,-99.99,,2013-04-29 13:01:00,
2013-04-29 09:11:00,47.0,-99.9,-100.00,South,178,3.0,6.0,-999,-99.99,,,-99.99,,2013-04-29 13:11:00,
2013-04-29 09:22:00,47.0,-99.9,-100.00,South,178,3.0,6.0,-999,-99.99,,,-99.99,,2013-04-29 13:22:00,
2013-04-29 09:32:00,47.0,-99.9,-100.00,South,178,3.0,6.0,-999,-99.99,,,-99.99,,2013-04-29 13:32:00,
2013-04-29 09:52:00,46.0,-99.9,-100.00,North,354,6.0,16.0,-999,-99.99,,,-99.99,,2013-04-29 13:52:00,
2013-04-29 10:02:00,45.0,-99.9,-100.00,North,356,4.0,8.0,-999,-99.99,,,-99.99,,2013-04-29 14:02:00,
2013-04-29 10:12:00,45.0,-99.9,-100.00,North,356,4.0,8.0,-999,-99.99,,,-99.99,,2013-04-29 14:12:00,
2013-04-29 10:22:00,46.0,-99.9,-100.00,North,354,6.0,16.0,-999,-99.99,,,-99.99,,2013-04-29 14:22:00,
2013-04-29 10:32:00,46.0,-99.9,-100.00,North,354,6.0,16.0,-999,-99.99,,,-99.99,,2013-04-29 14:32:00,
2013-04-29 10:40:00,45.0,-99.9,-100.00,North,350,7.0,8.0,-999,-99.99,,,-99.99,,2013-04-29 14:40:00,
2013-04-29 10:42:00,46.0,-99.9,-100.00,North,354,6.0,16.0,-999,-99.99,,,-99.99,,2013-04-29 14:42:00,
2013-04-29 10:52:00,46.0,-99.9,-100.00,North,354,6.0,16.0,-999,-99.99,,,-99.99,,2013-04-29 14:52:00,
2013-04-29 11:02:00,45.0,-99.9,-100.00,North,350,7.0,8.0,-999,-99.99,,,-99.99,,2013-04-29 15:02:00,
2013-04-29 11:12:00,45.0,-99.9,-100.00,North,350,7.0,8.0,-999,-99.99,,,-99.99,,2013-04-29 15:12:00,
2013-04-29 11:22:00,45.0,-99.9,-100.00,North,350,7.0,8.0,-999,-99.99,,,-99.99,,2013-04-29 15:22:00,
2013-04-29 11:33:00,45.0,-99.9,-100.00,North,350,7.0,8.0,-999,-99.99,,,-99.99,,2013-04-29 15:33:00,
2013-04-29 11:40:00,46.0,-99.9,-100.00,North,351,5.0,7.0,-999,-99.99,,,-99.99,,2013-04-29 15:40:00,
2013-04-29 12:13:00,46.0,-99.9,-100.00,North,351,5.0,7.0,-999,-99.99,,,-99.99,,2013-04-29 16:13:00,
2013-04-29 12:23:00,46.0,-99.9,-100.00,North,351,5.0,7.0,-999,-99.99,,,-99.99,,2013-04-29 16:23:00,
2013-04-29 12:33:00,46.0,-99.9,-100.00,North,351,5.0,7.0,-999,-99.99,,,-99.99,,2013-04-29 16:33:00,
2013-04-29 12:40:00,49.0,-99.9,-100.00,North,359,5.0,7.0,-999,-99.99,,,-99.99,,2013-04-29 16:40:00,
2013-04-29 13:02:00,49.0,-99.9,-100.00,North,359,5.0,7.0,-999,-99.99,,,-99.99,,2013-04-29 17:02:00,
2013-04-29 13:12:00,49.0,-99.9,-100.00,North,359,5.0,7.0,-999,-99.99,,,-99.99,,2013-04-29 17:12:00,
2013-04-29 13:23:00,49.0,-99.9,-100.00,North,359,5.0,7.0,-999,-99.99,,,-99.99,,2013-04-29 17:23:00,
2013-04-29 13:32:00,49.0,-99.9,-100.00,North,359,5.0,7.0,-999,-99.99,,,-99.99,,2013-04-29 17:32:00,
2013-04-29 13:40:00,46.0,-99.9,-100.00,North,6,4.0,5.0,-999,-99.99,,,-99.99,,2013-04-29 17:40:00,
2013-04-29 14:01:00,46.0,-99.9,-100.00,North,6,4.0,5.0,-999,-99.99,,,-99.99,,2013-04-29 18:01:00,
2013-04-29 14:13:00,46.0,-99.9,-100.00,North,6,4.0,5.0,-999,-99.99,,,-99.99,,2013-04-29 18:13:00,
2013-04-29 14:22:00,46.0,-99.9,-100.00,North,6,4.0,5.0,-999,-99.99,,,-99.99,,2013-04-29 18:22:00,
2013-04-29 14:32:00,46.0,-99.9,-100.00,North,6,4.0,5.0,-999,-99.99,,,-99.99,,2013-04-29 18:32:00,
2013-04-29 14:40:00,45.0,-99.9,-100.00,North,6,7.0,8.0,-999,-99.99,,,-99.99,,2013-04-29 18:40:00,
2013-04-29 15:01:00,45.0,-99.9,-100.00,North,6,7.0,8.0,-999,-99.99,,,-99.99,,2013-04-29 19:01:00,
2013-04-29 15:12:00,45.0,-99.9,-100.00,North,6,7.0,8.0,-999,-99.99,,,-99.99,,2013-04-29 19:12:00,
2013-04-29 15:22:00,45.0,-99.9,-100.00,North,6,7.0,8.0,-999,-99.99,,,-99.99,,2013-04-29 19:22:00,
2013-04-29 15:32:00,45.0,-99.9,-100.00,North,6,7.0,8.0,-999,-99.99,,,-99.99,,2013-04-29 19:32:00,
2013-04-29 15:40:00,42.0,-99.9,-100.00,North,356,8.0,9.0,-999,-99.99,,,-99.99,,2013-04-29 19:40:00,
2013-04-29 16:02:00,42.0,-99.9,-100.00,North,356,8.0,9.0,-999,-99.99,,,-99.99,,2013-04-29 20:02:00,
2013-04-29 16:12:00,42.0,-99.9,-100.00,North,356,8.0,9.0,-999,-99.99,,,-99.99,,2013-04-29 20:12:00,
2013-04-29 16:22:00,42.0,-99.9,-100.00,North,356,8.0,9.0,-999,-99.99,,,-99.99,,2013-04-29 20:22:00,
2013-04-29 16:32:00,42.0,-99.9,-100.00,North,356,8.0,9.0,-999,-99.99,,,-99.99,,2013-04-29 20:32:00,
2013-04-29 16:40:00,51.0,-99.9,-100.00,NE,50,1.0,4.0,-999,-99.99,,,-99.99,,2013-04-29 20:40:00,
2013-04-29 17:02:00,51.0,-99.9,-100.00,NE,50,1.0,4.0,-999,-99.99,,,-99.99,,2013-04-29 21:02:00,
2013-04-29 17:12:00,51.0,-99.9,-100.00,NE,50,1.0,4.0,-999,-99.99,,,-99.99,,2013-04-29 21:12:00,
2013-04-29 17:22:00,51.0,-99.9,-100.00,NE,50,1.0,4.0,-999,-99.99,,,-99.99,,2013-04-29 21:22:00,
2013-04-29 17:33:00,51.0,-99.9,-100.00,NE,50,1.0,4.0,-999,-99.99,,,-99.99,,2013-04-29 21:33:00,
2013-04-29 17:40:00,52.0,-99.9,-100.00,ENE,64,0.0,6.0,-999,-99.99,,,-99.99,,2013-04-29 21:40:00,
2013-04-29 18:03:00,52.0,-99.9,-100.00,ENE,64,0.0,6.0,-999,-99.99,,,-99.99,,2013-04-29 22:03:00,
2013-04-29 18:13:00,52.0,-99.9,-100.00,ENE,64,0.0,6.0,-999,-99.99,,,-99.99,,2013-04-29 22:13:00,
2013-04-29 18:23:00,52.0,-99.9,-100.00,ENE,64,0.0,6.0,-999,-99.99,,,-99.99,,2013-04-29 22:23:00,
2013-04-29 18:33:00,52.0,-99.9,-100.00,ENE,64,0.0,6.0,-999,-99.99,,,-99.99,,2013-04-29 22:33:00,
2013-04-29 18:40:00,53.0,-99.9,-100.00,NNW,345,6.0,7.0,-999,-99.99,,,-99.99,,2013-04-29 22:40:00,
2013-04-29 19:02:00,53.0,-99.9,-100.00,NNW,345,6.0,7.0,-999,-99.99,,,-99.99,,2013-04-29 23:02:00,
2013-04-29 19:12:00,53.0,-99.9,-100.00,NNW,345,6.0,7.0,-999,-99.99,,,-99.99,,2013-04-29 23:12:00,
2013-04-29 19:22:00,53.0,-99.9,-100.00,NNW,345,6.0,7.0,-999,-99.99,,,-99.99,,2013-04-29 23:22:00,
2013-04-29 19:32:00,53.0,-99.9,-100.00,NNW,345,6.0,7.0,-999,-99.99,,,-99.99,,2013-04-29 23:32:00,
2013-04-29 19:40:00,47.0,-99.9,-100.00,NNW,334,5.0,6.0,-999,-99.99,,,-99.99,,2013-04-29 23:40:00,
2013-04-29 20:01:00,47.0,-99.9,-100.00,NNW,334,5.0,6.0,-999,-99.99,,,-99.99,,2013-04-30 00:01:00,
2013-04-29 20:12:00,47.0,-99.9,-100.00,NNW,334,5.0,6.0,-999,-99.99,,,-99.99,,2013-04-30 00:12:00,
2013-04-29 20:22:00,47.0,-99.9,-100.00,NNW,334,5.0,6.0,-999,-99.99,,,-99.99,,2013-04-30 00:22:00,
2013-04-29 20:32:00,47.0,-99.9,-100.00,NNW,334,5.0,6.0,-999,-99.99,,,-99.99,,2013-04-30 00:32:00,
2013-04-29 20:40:00,45.0,-99.9,-100.00,NNW,328,2.0,6.0,-999,-99.99,,,-99.99,,2013-04-30 00:40:00,
2013-04-29 21:02:00,45.0,-99.9,-100.00,NNW,328,2.0,6.0,-999,-99.99,,,-99.99,,2013-04-30 01:02:00,
2013-04-29 21:12:00,45.0,-99.9,-100.00,NNW,328,2.0,6.0,-999,-99.99,,,-99.99,,2013-04-30 01:12:00,
2013-04-29 21:22:00,45.0,-99.9,-100.00,NNW,328,2.0,6.0,-999,-99.99,,,-99.99,,2013-04-30 01:22:00,
2013-04-29 21:32:00,45.0,-99.9,-100.00,NNW,328,2.0,6.0,-999,-99.99,,,-99.99,,2013-04-30 01:32:00,
2013-04-29 21:40:00,42.0,-99.9,-100.00,SW,225,2.0,3.0,-999,-99.99,,,-99.99,,2013-04-30 01:40:00,
2013-04-29 22:02:00,42.0,-99.9,-100.00,SW,225,2.0,3.0,-999,-99.99,,,-99.99,,2013-04-30 02:02:00,
2013-04-29 22:11:00,42.0,-99.9,-100.00,SW,225,2.0,3.0,-999,-99.99,,,-99.99,,2013-04-30 02:11:00,
2013-04-29 22:21:00,42.0,-99.9,-100.00,SW,225,2.0,3.0,-999,-99.99,,,-99.99,,2013-04-30 02:21:00,
2013-04-29 22:32:00,42.0,-99.9,-100.00,SW,225,2.0,3.0,-999,-99.99,,,-99.99,,2013-04-30 02:32:00,
2013-04-29 22:40:00,43.0,-99.9,-100.00,SSE,161,2.0,4.0,-999,-99.99,,,-99.99,,2013-04-30 02:40:00,
2013-04-29 23:01:00,43.0,-99.9,-100.00,SSE,161,2.0,4.0,-999,-99.99,,,-99.99,,2013-04-30 03:01:00,
2013-04-29 23:11:00,43.0,-99.9,-100.00,SSE,161,2.0,4.0,-999,-99.99,,,-99.99,,2013-04-30 03:11:00,
2013-04-29 23:22:00,43.0,-99.9,-100.00,SSE,161,2.0,4.0,-999,-99.99,,,-99.99,,2013-04-30 03:22:00,
2013-04-29 23:33:00,43.0,-99.9,-100.00,SSE,161,2.0,4.0,-999,-99.99,,,-99.99,,2013-04-30 03:33:00,
2013-04-29 23:40:00,43.0,-99.9,-100.00,NE,56,0.0,1.0,-999,-99.99,,,-99.99,,2013-04-30 03:40:00,